AirNav   Air Wisconsin Up To $57,000 Bonus
 
 936 users online  

FD58 St Luke's Hospital Heliport
Jacksonville, Florida, USA

GOING TO JACKSONVILLE?


FAA INFORMATION EFFECTIVE 05 DECEMBER 2019

Location

FAA Identifier: FD58
Lat/Long: 30-15-17.7100N 081-34-59.0800W
30-15.295167N 081-34.984667W
30.2549194,-81.5830778
(estimated)
Elevation: 25 ft. / 8 m (estimated)
Variation: 03W (1986)
Time zone: UTC -5 (UTC -4 during Daylight Saving Time)
Zip code: 32216

Heliport Operations

Heliport use: Private use. Permission required prior to landing
Activation date: 03/1986
Control tower: no
ARTCC: JACKSONVILLE CENTER
FSS: GAINESVILLE FLIGHT SERVICE STATION
Attendance: CONTINUOUS
Wind indicator: lighted
Segmented circle: no

Heliport Communications

WX ASOS at CRG (6 nm NE): PHONE 904-646-4670
WX AWOS-3 at HEG (12 nm W): 119.275 (904-695-0334)
WX ASOS at JAX (15 nm N): PHONE 904-741-4304
WX AWOS-3 at VQQ (15 nm W): 125.275 (904-778-6934)

Nearby radio navigation aids

VOR radial/distance  VOR name  Freq  Var
CRGr220/6.3CRAIG VORTAC114.5003W
VQQr084/(16.2)CECIL VOR117.9003W
SGJr330/22.2ST AUGUSTINE VOR/DME109.4006W

 
NDB name  Hdg/Dist  Freq  Var  ID
REYNOLDS020/17.733807WRYD .-. -.-- -..

Heliport Services

Runway Information

Helipad H1

Dimensions: 60 x 60 ft. / 18 x 18 m
Surface: concrete
Latitude: 30-15.295167N
Longitude: 081-34.984667W
Elevation: 25.0 ft.
Traffic pattern: leftleft

Heliport Ownership and Management from official FAA records

Ownership: Privately-owned
Owner: ST. LUKE'S HOSPITAL
4201 BELFORT RD.
JACKSONVILLE, FL 32216
Phone 904-296-3700
Manager: GARY P. PEZALL
4201 BELFORT RD.
JACKSONVILLE, FL 32216
Phone 904-296-3749

Additional Remarks

FOR CD CTC JACKSONVILLE APCH AT 904-741-0284.

Instrument Procedures

There are no published instrument procedures at FD58.

Some nearby airports with instrument procedures:

KNIP - Jacksonville Naval Air Station (Towers Field) (5 nm W)
KCRG - Jacksonville Executive Airport at Craig (6 nm NE)
KNRB - Mayport Naval Station (Adm David L. McDonald Field) (12 nm NE)
KHEG - Herlong Recreational Airport (12 nm W)
KJAX - Jacksonville International Airport (15 nm N)
KVQQ - Cecil Airport (15 nm W)
 
Loc | Ops | Rwys | IFR | FBO | Links
Com | Nav | Svcs | Stats | Notes
Area around FD58 (St Luke's Hospital Heliport)
 
Road maps at: MapQuest Bing Google
 
Aerial photo
No photo
 
Sectional chart

 
Airport distance calculator
Flying to St Luke's Hospital Heliport? Find the distance to fly.

From to FD58

Sunrise and sunset
Times for 13-Dec-2019
 Local
(UTC-5)
 Zulu
(UTC)
Morning civil twilight06:4911:49
Sunrise07:1512:15
Sunset17:2622:26
Evening civil twilight17:5222:52

Current date and time
Zulu (UTC)  13-Dec-2019 13:32:36
Local (UTC-5)  13-Dec-2019 08:32:36
 
METAR
KNIP 
5nm SW 
131309Z 27007KT 1SM +RA BR SCT004 BKN008 OVC014 18/17 A3002 RMK AO2 VIS W-NW 1/2 T2 SET P0009 T01830167 $
KCRG 
6nm NE 
131319Z VRB03KT 3SM -RA BR SCT005 OVC008 20/20 A3000 RMK AO2 LTG DSNT E AND SE P0034 T02000200
KNRB 
12nm NE 
131310Z 18011G17KT 1SM +TSRA BR SCT010 OVC020CB 20/19 A3002 RMK AO2 RAB1254 TSB09 PRESRR FRQ LTGICCG VC S TS S MOV N T1 SET P0031 T02000189
KHEG 
12nm W 
131315Z AUTO 00000KT 2SM -DZ BKN003 BKN007 OVC016 16/16 A3003 RMK AO2 LTG DSNT E AND SW
KJAX 
16nm N 
131256Z 32005KT 1 1/2SM R08/6000VP6000FT RA BR BKN004 OVC008 17/16 A3001 RMK AO2 TWR VIS 2 LTG DSNT SE SLP162 P0022 T01670156
KVQQ 
16nm W 
131135Z AUTO 00000KT 1 3/4SM -RA BKN003 OVC007 17/16 A3002 RMK AO2
TAF
KNIP 
5nm SW 
1311/1407 VRB08KT 6000 RA BR VCTS FEW003 BKN030CB OVC100 641009 641905 530009 531809 532709 533609 QNH3000INS TEMPO 1311/1315 VRB15G25KT 1600 +TSRA BR SCT002 BKN015CB OVC030 FM131700 18010KT 8000 -SHRA BR SCT030 BKN110 641009 641905 530009 531809 532709 533609 QNH2995INS FM140100 20010KT 9000 VCSH BR BKN016 611009 611905 530009 531809 532709 533609 QNH2980INS T22/1320Z T18/1412Z AMD 1105 FN20016
KCRG 
6nm NE 
131120Z 1312/1412 10006KT 2SM RA BR SCT008 BKN015 OVC025 FM131400 14008KT 6SM -SHRA SCT008 BKN015 OVC025 FM131900 22008KT 6SM -SHRA VCTS SCT010 BKN020CB OVC030 FM132300 16006KT 6SM BR SCT010 BKN020 OVC030 FM140300 19006KT 3SM BR BKN005 OVC010 FM140800 22012KT 3SM SHRA VCTS BKN010CB OVC020
KNRB 
12nm NE 
1309/1407 10008KT 9000 BR FEW025 SCT047 OVC120 QNH3000INS TEMPO 1307/1313 6000 VCTS BR BKN005CB OVC012 TEMPO 1314/1317 1600 +TSRA BR BKN004CB FM132100 21010KT 6000 VCSH BR BKN024 QNH2984INS FM140300 20010KT 9999 BKN035 QNH2985INS AUTOMATED SENSOR METWATCH 1309 TIL 1412 T14/1309Z T19/1317Z COR 0920 FN00218
KJAX 
16nm N 
131120Z 1312/1412 VRB06KT 2SM RA BR BKN003 BKN006 OVC015 FM131400 14008KT 6SM -SHRA SCT008 BKN015 OVC025 FM131900 22008KT 6SM -SHRA VCTS SCT010 BKN020CB OVC030 FM132300 16006KT 6SM BR SCT010 BKN020 OVC030 FM140300 19006KT 3SM BR BKN005 OVC010 FM140800 22012KT 3SM SHRA VCTS BKN010CB OVC020
KVQQ 
16nm W 
131120Z 1312/1412 VRB04KT 2SM RA BR OVC003 FM131500 14008KT 6SM -SHRA SCT005 BKN010 OVC020 FM131900 22008KT 6SM -SHRA VCTS SCT010 BKN020CB OVC030 FM132300 16006KT 6SM BR SCT010 BKN020 OVC030 FM140300 19006KT 3SM BR BKN005 OVC010 FM140800 22012KT 3SM SHRA VCTS BKN010CB OVC020
NOTAMs
Click for the latest NOTAMs
NOTAMs are issued by the DoD/FAA and will open in a separate window not controlled by AirNav.

 

 
 

Would you like to see your business listed on this page?

 If your business provides an interesting product or service to pilots, flight crews, aircraft, or users of the St Luke's Hospital Heliport, you should consider listing it here.  To start the listing process, click on the button below
 
Add a business
 

Other Pages about St Luke's Hospital Heliport

Update a link
 
Copyright © AirNav, LLC. All rights reserved. Privacy Policy  Contact